Time;durP1;ratioP1;P1;durP2;ratioP2;P2;SDS_P1;SDS_P2;PMS_P1;PMS_P2;Temp;Humidity;BMP_temperature;BMP_pressure;BME280_temperature;BME280_humidity;BME280_pressure;Samples;Min_cycle;Max_cycle;Signal;HPM_P1;HPM_P2
2023/05/12 00:02:12;;;;;;;2.85;2.65;;;18.90;33.90;;;;;;5155148;27;20146;-82
2023/05/12 00:04:41;;;;;;;3.47;2.75;;;19.00;33.90;;;;;;5174304;27;20146;-83
2023/05/12 00:07:06;;;;;;;3.10;2.80;;;19.00;33.90;;;;;;5138169;27;20169;-83
2023/05/12 00:09:32;;;;;;;3.20;2.90;;;19.00;34.00;;;;;;5155461;27;20155;-82
2023/05/12 00:11:58;;;;;;;3.00;2.70;;;19.00;34.00;;;;;;5155130;27;20165;-82
2023/05/12 00:14:23;;;;;;;3.20;2.80;;;19.00;34.00;;;;;;5138372;27;20173;-82
2023/05/12 00:16:50;;;;;;;3.05;2.78;;;19.00;34.10;;;;;;5173367;27;20221;-82
2023/05/12 00:19:17;;;;;;;3.25;2.95;;;19.00;34.10;;;;;;5138189;27;20166;-82
2023/05/12 00:21:43;;;;;;;2.88;2.58;;;18.90;34.00;;;;;;5120270;27;20166;-83
2023/05/12 00:24:09;;;;;;;3.35;2.67;;;19.00;34.10;;;;;;5154946;27;20172;-82
2023/05/12 00:26:34;;;;;;;2.80;2.60;;;19.00;34.10;;;;;;5137331;27;20157;-82
2023/05/12 00:29:00;;;;;;;2.95;2.75;;;19.00;34.10;;;;;;5162762;27;20151;-82
2023/05/12 00:31:26;;;;;;;2.90;2.65;;;19.00;34.10;;;;;;5123853;27;20513;-82
2023/05/12 00:33:51;;;;;;;3.00;2.80;;;19.00;34.20;;;;;;5140512;27;20154;-82
2023/05/12 00:36:17;;;;;;;3.03;2.80;;;19.00;34.20;;;;;;5123344;27;20209;-82
2023/05/12 00:38:43;;;;;;;3.20;2.90;;;19.00;34.20;;;;;;5140881;27;20501;-82
2023/05/12 00:41:08;;;;;;;3.00;2.78;;;19.00;34.20;;;;;;5159316;27;20151;-81
2023/05/12 00:43:35;;;;;;;3.10;2.75;;;18.90;34.10;;;;;;5140477;27;20155;-82
2023/05/12 00:46:01;;;;;;;3.20;2.90;;;19.00;34.10;;;;;;5106985;27;20151;-82
2023/05/12 00:48:28;;;;;;;3.00;2.80;;;18.90;34.10;;;;;;5106252;27;20524;-82
2023/05/12 00:50:54;;;;;;;3.00;2.70;;;18.90;34.10;;;;;;5140156;27;20154;-82
2023/05/12 00:53:21;;;;;;;5.38;2.97;;;19.00;34.10;;;;;;5159281;27;20155;-82
2023/05/12 00:55:46;;;;;;;2.97;2.70;;;18.90;34.10;;;;;;5140321;27;20151;-81
2023/05/12 00:58:12;;;;;;;3.05;2.75;;;19.00;34.30;;;;;;5140251;27;20169;-82
2023/05/12 01:00:38;;;;;;;3.10;2.80;;;18.90;34.20;;;;;;5140389;27;20147;-81
2023/05/12 01:03:04;;;;;;;2.95;2.75;;;18.90;34.20;;;;;;5140687;27;20175;-82
2023/05/12 01:05:35;;;;;;;2.88;2.63;;;18.90;34.20;;;;;;5123204;27;20151;-83
2023/05/12 01:08:02;;;;;;;2.85;2.65;;;18.90;34.20;;;;;;5123720;27;20147;-82
2023/05/12 01:10:27;;;;;;;2.80;2.60;;;18.90;34.30;;;;;;5106367;27;20155;-83
2023/05/12 01:12:53;;;;;;;3.13;2.75;;;18.90;34.30;;;;;;5140494;27;20157;-82
2023/05/12 01:15:21;;;;;;;3.20;2.90;;;18.90;34.30;;;;;;5105738;27;20565;-83
2023/05/12 01:17:53;;;;;;;3.00;2.70;;;18.90;34.30;;;;;;5139539;27;20297;-83
2023/05/12 01:20:20;;;;;;;3.22;2.83;;;18.90;35.00;;;;;;5106591;27;20182;-83
2023/05/12 01:22:46;;;;;;;2.90;2.70;;;18.90;34.30;;;;;;5140423;27;20223;-82
2023/05/12 01:25:12;;;;;;;3.40;2.92;;;18.90;34.30;;;;;;5105881;27;20196;-82
2023/05/12 01:27:39;;;;;;;2.95;2.60;;;18.90;34.30;;;;;;5158429;27;20147;-82
2023/05/12 01:30:05;;;;;;;2.95;2.75;;;18.80;34.30;;;;;;5139562;27;20612;-82
2023/05/12 01:32:31;;;;;;;2.83;2.63;;;18.90;34.40;;;;;;5122495;27;20218;-82
2023/05/12 01:34:58;;;;;;;3.20;2.90;;;18.80;34.40;;;;;;5105338;27;20266;-82
2023/05/12 01:37:25;;;;;;;3.33;3.03;;;18.90;34.40;;;;;;5157205;27;20216;-82
2023/05/12 01:39:52;;;;;;;2.80;2.60;;;18.90;34.40;;;;;;5104179;27;20257;-81
2023/05/12 01:42:18;;;;;;;2.90;2.70;;;18.90;34.40;;;;;;5138422;27;20147;-82
2023/05/12 01:44:44;;;;;;;2.83;2.63;;;18.90;34.40;;;;;;5138127;27;20158;-82
2023/05/12 01:47:10;;;;;;;3.00;2.80;;;18.80;34.40;;;;;;5156463;27;20150;-83
2023/05/12 01:49:37;;;;;;;3.17;2.88;;;18.90;34.40;;;;;;5138275;27;20541;-84
2023/05/12 01:52:03;;;;;;;3.20;2.90;;;18.90;34.40;;;;;;5121129;27;20686;-82
2023/05/12 01:54:28;;;;;;;3.13;2.85;;;18.90;34.40;;;;;;5120775;27;20178;-83
2023/05/12 01:56:54;;;;;;;3.42;3.13;;;18.90;34.50;;;;;;5156116;27;20644;-82
2023/05/12 01:59:20;;;;;;;3.10;2.88;;;18.80;34.40;;;;;;5075746;28;20513;-83
2023/05/12 02:01:45;;;;;;;2.90;2.60;;;18.90;34.60;;;;;;5075978;28;20175;-82
2023/05/12 02:04:11;;;;;;;3.00;2.72;;;18.80;34.50;;;;;;5059269;28;20176;-82
2023/05/12 02:06:37;;;;;;;3.30;3.00;;;18.90;34.60;;;;;;5075460;28;20576;-83
2023/05/12 02:09:03;;;;;;;2.97;2.78;;;18.80;34.50;;;;;;5075569;28;20534;-81
2023/05/12 02:11:29;;;;;;;3.03;2.83;;;18.80;34.50;;;;;;5075495;28;20153;-82
2023/05/12 02:13:55;;;;;;;2.70;2.50;;;18.80;34.50;;;;;;5092290;28;20180;-82
2023/05/12 02:16:21;;;;;;;4.30;3.10;;;18.80;34.60;;;;;;5074961;28;20831;-83
2023/05/12 02:18:47;;;;;;;2.88;2.67;;;18.80;34.60;;;;;;5075215;28;20213;-82
2023/05/12 02:21:12;;;;;;;3.40;3.10;;;18.90;34.70;;;;;;5075379;28;20252;-82
2023/05/12 02:23:38;;;;;;;3.10;2.90;;;18.80;34.60;;;;;;5075231;28;20152;-83
2023/05/12 02:26:04;;;;;;;3.10;2.80;;;18.80;34.60;;;;;;5075153;28;20252;-82
2023/05/12 02:28:29;;;;;;;3.30;3.00;;;18.80;34.60;;;;;;5075028;28;20196;-82
2023/05/12 02:30:55;;;;;;;3.30;3.00;;;18.80;34.60;;;;;;5086478;28;20183;-82
2023/05/12 02:33:22;;;;;;;3.25;2.95;;;18.80;34.60;;;;;;5113170;28;20625;-82
2023/05/12 02:35:47;;;;;;;2.75;2.55;;;18.90;34.70;;;;;;5096615;28;20168;-82
2023/05/12 02:38:13;;;;;;;2.72;2.53;;;18.80;34.60;;;;;;5096047;28;20199;-82
2023/05/12 02:40:39;;;;;;;3.05;2.75;;;18.80;34.70;;;;;;5112893;28;20168;-82
2023/05/12 02:43:05;;;;;;;3.13;2.83;;;18.80;34.70;;;;;;5096608;28;20163;-82
2023/05/12 02:45:31;;;;;;;3.38;3.08;;;18.80;34.70;;;;;;5096062;28;20176;-83
2023/05/12 02:47:56;;;;;;;3.33;3.03;;;18.80;34.80;;;;;;5113226;28;20674;-83
2023/05/12 02:50:22;;;;;;;2.80;2.60;;;18.80;34.80;;;;;;5112981;28;20156;-82
2023/05/12 02:52:48;;;;;;;3.08;2.80;;;18.80;34.80;;;;;;5113797;28;20176;-84
2023/05/12 02:55:14;;;;;;;3.22;2.70;;;18.80;34.80;;;;;;5113273;28;20175;-82
2023/05/12 02:57:39;;;;;;;3.38;3.08;;;18.80;34.80;;;;;;5112980;28;20196;-83
2023/05/12 03:00:06;;;;;;;2.97;2.67;;;18.80;34.80;;;;;;5112775;28;20235;-82
2023/05/12 03:02:36;;;;;;;3.38;2.72;;;18.80;34.80;;;;;;5112697;28;20175;-83
2023/05/12 03:05:02;;;;;;;3.20;2.90;;;18.80;34.80;;;;;;5113893;28;20156;-83
2023/05/12 03:07:27;;;;;;;3.30;3.00;;;18.80;34.80;;;;;;5096097;28;20171;-82
2023/05/12 03:09:53;;;;;;;3.50;2.60;;;18.70;34.80;;;;;;5113804;28;20545;-83
2023/05/12 03:12:19;;;;;;;3.22;2.92;;;18.80;34.80;;;;;;5112557;28;20148;-83
2023/05/12 03:14:45;;;;;;;2.70;2.50;;;18.80;34.90;;;;;;5112937;28;20144;-82
2023/05/12 03:17:10;;;;;;;3.40;3.10;;;18.80;34.90;;;;;;5105802;28;20227;-82
2023/05/12 03:19:36;;;;;;;3.08;2.72;;;18.80;34.90;;;;;;5112465;28;20164;-83
2023/05/12 03:22:02;;;;;;;3.30;3.00;;;18.80;34.90;;;;;;5095629;28;20164;-82
2023/05/12 03:24:28;;;;;;;3.55;2.70;;;18.80;35.00;;;;;;5095885;28;20216;-82
2023/05/12 03:26:54;;;;;;;3.25;2.95;;;18.70;34.90;;;;;;5095898;28;20263;-82
2023/05/12 03:29:20;;;;;;;3.17;2.85;;;18.80;35.00;;;;;;5095393;28;20638;-82
2023/05/12 03:31:46;;;;;;;3.33;3.03;;;18.80;35.00;;;;;;5096086;28;20542;-82
2023/05/12 03:34:12;;;;;;;3.00;2.80;;;18.80;35.00;;;;;;5095812;28;20168;-82
2023/05/12 03:36:38;;;;;;;3.10;2.90;;;18.70;35.00;;;;;;5095391;28;20551;-82
2023/05/12 03:39:03;;;;;;;3.20;2.90;;;18.70;35.10;;;;;;5095479;28;20236;-81
2023/05/12 03:41:29;;;;;;;2.97;2.67;;;18.70;35.10;;;;;;5095454;28;20148;-82
2023/05/12 03:43:55;;;;;;;3.28;2.97;;;18.70;35.10;;;;;;5112276;28;20197;-82
2023/05/12 03:46:21;;;;;;;2.78;2.58;;;18.70;35.10;;;;;;5112132;28;20191;-82
2023/05/12 03:48:47;;;;;;;3.08;2.80;;;18.70;35.10;;;;;;5112289;28;20235;-82
2023/05/12 03:51:12;;;;;;;2.83;2.63;;;18.70;35.10;;;;;;5095398;28;20669;-82
2023/05/12 03:53:41;;;;;;;3.17;2.90;;;18.70;35.10;;;;;;5112185;28;20168;-82
2023/05/12 03:56:08;;;;;;;3.22;2.92;;;18.70;35.20;;;;;;5113299;28;20164;-83
2023/05/12 03:58:33;;;;;;;3.45;3.15;;;18.60;35.10;;;;;;5113330;28;20157;-81
2023/05/12 04:01:00;;;;;;;3.20;3.00;;;18.70;35.10;;;;;;5095883;28;20160;-82
2023/05/12 04:03:27;;;;;;;2.90;2.70;;;18.70;35.10;;;;;;5113711;28;20168;-82
2023/05/12 04:06:00;;;;;;;2.70;2.50;;;18.80;35.20;;;;;;5117251;28;20156;-82
2023/05/12 04:08:26;;;;;;;4.20;3.13;;;18.70;35.20;;;;;;5099256;28;20477;-82
2023/05/12 04:10:56;;;;;;;3.00;2.70;;;18.80;35.20;;;;;;5115925;28;20183;-82
2023/05/12 04:13:22;;;;;;;3.17;2.88;;;18.70;35.10;;;;;;5099253;28;20148;-83
2023/05/12 04:15:48;;;;;;;3.10;2.90;;;18.70;35.10;;;;;;5115893;28;20494;-82
2023/05/12 04:18:14;;;;;;;3.10;2.80;;;18.80;35.10;;;;;;5115572;28;20272;-83
2023/05/12 04:20:40;;;;;;;2.90;2.70;;;18.80;35.10;;;;;;5115763;28;20614;-82
2023/05/12 04:23:05;;;;;;;3.10;2.80;;;18.80;35.00;;;;;;5115603;28;20189;-82
2023/05/12 04:25:31;;;;;;;2.97;2.70;;;18.90;35.00;;;;;;5116886;28;20510;-82
2023/05/12 04:27:57;;;;;;;2.80;2.60;;;18.90;35.00;;;;;;5116783;28;20160;-82
2023/05/12 04:30:22;;;;;;;3.20;2.90;;;18.90;34.90;;;;;;5115603;28;20232;-81
2023/05/12 04:32:48;;;;;;;2.80;2.60;;;18.90;34.90;;;;;;5115649;28;20173;-83
2023/05/12 04:35:14;;;;;;;2.85;2.65;;;18.80;34.80;;;;;;5116658;28;20148;-82
2023/05/12 04:37:40;;;;;;;3.10;2.83;;;18.90;34.90;;;;;;5115325;28;20184;-82
2023/05/12 04:40:06;;;;;;;3.15;2.88;;;19.00;34.90;;;;;;5098385;28;20586;-82
2023/05/12 04:42:32;;;;;;;3.35;3.05;;;19.00;34.90;;;;;;5116448;28;20229;-82
2023/05/12 04:44:58;;;;;;;3.08;2.88;;;18.90;34.80;;;;;;5098846;28;20160;-81
2023/05/12 04:47:24;;;;;;;2.70;2.50;;;19.00;34.90;;;;;;5115339;28;20320;-82
2023/05/12 04:49:49;;;;;;;3.25;2.95;;;19.00;34.80;;;;;;5116335;28;20243;-82
2023/05/12 04:52:15;;;;;;;2.88;2.67;;;19.00;34.80;;;;;;5115198;28;20171;-82
2023/05/12 04:54:41;;;;;;;3.10;2.72;;;19.00;34.80;;;;;;5115130;28;20551;-81
2023/05/12 04:57:07;;;;;;;2.88;2.65;;;19.10;34.80;;;;;;5116450;28;20596;-81
2023/05/12 04:59:33;;;;;;;3.08;2.88;;;19.10;34.70;;;;;;5098086;28;20210;-82
2023/05/12 05:01:58;;;;;;;4.13;2.90;;;19.10;34.70;;;;;;5097621;28;20157;-82
2023/05/12 05:04:24;;;;;;;3.35;3.05;;;19.00;34.70;;;;;;5097801;28;20179;-82
2023/05/12 05:06:50;;;;;;;2.80;2.60;;;19.10;34.80;;;;;;5081035;28;20526;-82
2023/05/12 05:09:15;;;;;;;3.30;3.00;;;19.00;34.70;;;;;;5116227;28;20537;-82
2023/05/12 05:11:41;;;;;;;3.22;2.92;;;19.10;34.70;;;;;;5097735;28;20160;-82
2023/05/12 05:14:07;;;;;;;2.85;2.63;;;19.10;34.60;;;;;;5097493;28;20515;-82
2023/05/12 05:16:33;;;;;;;2.70;2.50;;;19.20;34.60;;;;;;5098024;28;20742;-82
2023/05/12 05:18:58;;;;;;;3.10;2.80;;;19.10;34.60;;;;;;5115744;28;20159;-83
2023/05/12 05:21:24;;;;;;;2.78;2.58;;;19.10;34.60;;;;;;5114693;28;20239;-82
2023/05/12 05:23:50;;;;;;;3.03;2.72;;;19.10;34.70;;;;;;5114504;28;20520;-81
2023/05/12 05:26:15;;;;;;;2.90;2.70;;;19.10;34.60;;;;;;5114399;28;20229;-83
2023/05/12 05:28:41;;;;;;;3.33;2.83;;;19.10;34.60;;;;;;5097319;28;20156;-83
2023/05/12 05:31:07;;;;;;;2.97;2.78;;;19.20;34.60;;;;;;5115610;28;20152;-82
2023/05/12 05:33:32;;;;;;;3.55;2.90;;;19.20;34.60;;;;;;5097238;28;20160;-82
2023/05/12 05:35:58;;;;;;;2.83;2.63;;;19.20;34.60;;;;;;5115335;28;20153;-83
2023/05/12 05:38:24;;;;;;;3.00;2.75;;;19.20;34.70;;;;;;5115604;28;20148;-82
2023/05/12 05:40:50;;;;;;;3.65;3.08;;;19.20;34.60;;;;;;5114372;28;20194;-83
2023/05/12 05:43:16;;;;;;;3.45;2.80;;;19.20;34.70;;;;;;5115915;28;20681;-82
2023/05/12 05:45:41;;;;;;;3.28;2.83;;;19.20;34.70;;;;;;5113860;28;20228;-82
2023/05/12 05:48:11;;;;;;;2.80;2.60;;;19.20;34.70;;;;;;5114676;28;20210;-84
2023/05/12 05:50:37;;;;;;;3.83;2.83;;;19.20;34.80;;;;;;5117446;28;20152;-81
2023/05/12 05:53:03;;;;;;;2.80;2.55;;;19.20;34.70;;;;;;5114407;28;20152;-83
2023/05/12 05:55:28;;;;;;;2.97;2.67;;;19.20;34.70;;;;;;5114421;28;20625;-81
2023/05/12 05:57:54;;;;;;;3.15;2.85;;;19.20;34.80;;;;;;5113941;28;20628;-81
2023/05/12 06:00:20;;;;;;;3.65;2.67;;;19.20;34.70;;;;;;5114935;28;20652;-82
2023/05/12 06:02:45;;;;;;;2.97;2.67;;;19.20;34.60;;;;;;5114949;28;20628;-81
2023/05/12 06:05:11;;;;;;;2.90;2.70;;;19.20;34.60;;;;;;5114902;28;20610;-81
2023/05/12 06:07:37;;;;;;;2.90;2.70;;;19.30;34.60;;;;;;5097634;28;20187;-83
2023/05/12 06:10:04;;;;;;;3.03;2.72;;;19.30;34.60;;;;;;5096508;28;20171;-83
2023/05/12 06:12:29;;;;;;;4.85;2.92;;;19.30;35.30;;;;;;5113672;28;20144;-82
2023/05/12 06:14:55;;;;;;;5.93;3.00;;;19.30;34.60;;;;;;5079684;28;20526;-82
2023/05/12 06:17:21;;;;;;;5.50;2.83;;;19.30;34.60;;;;;;5113359;28;20700;-83
2023/05/12 06:19:48;;;;;;;9.02;3.00;;;19.30;34.70;;;;;;5096563;28;20232;-82
2023/05/12 06:22:14;;;;;;;5.07;3.00;;;19.30;34.70;;;;;;5097021;28;20167;-82
2023/05/12 06:24:40;;;;;;;4.03;2.92;;;19.30;34.70;;;;;;5096721;28;20609;-83
2023/05/12 06:27:06;;;;;;;3.97;3.00;;;19.20;35.50;;;;;;5114012;28;20289;-82
2023/05/12 06:29:32;;;;;;;3.45;2.70;;;19.20;34.80;;;;;;5113366;28;20166;-83
2023/05/12 06:31:58;;;;;;;3.00;2.70;;;19.30;34.70;;;;;;5113430;28;20152;-83
2023/05/12 06:34:23;;;;;;;3.95;2.90;;;19.20;34.70;;;;;;5113114;28;20243;-82
2023/05/12 06:36:49;;;;;;;2.97;2.58;;;19.20;34.80;;;;;;5113056;28;20190;-83
2023/05/12 06:39:15;;;;;;;4.82;3.10;;;19.30;34.80;;;;;;5114258;28;20191;-83
2023/05/12 06:41:40;;;;;;;3.95;2.60;;;19.30;34.80;;;;;;5114256;28;20261;-83
2023/05/12 06:44:11;;;;;;;2.90;2.67;;;19.20;34.80;;;;;;5114109;28;20167;-83
2023/05/12 06:46:38;;;;;;;2.80;2.60;;;19.10;35.00;;;;;;5114258;28;20221;-83
2023/05/12 06:49:04;;;;;;;2.78;2.58;;;19.10;35.10;;;;;;5096462;28;20172;-82
2023/05/12 06:51:29;;;;;;;5.68;2.90;;;19.00;35.10;;;;;;5079058;28;20167;-82
2023/05/12 06:53:55;;;;;;;2.70;2.40;;;19.10;35.00;;;;;;5113305;28;20250;-83
2023/05/12 06:56:22;;;;;;;3.22;2.75;;;19.10;35.00;;;;;;5095841;28;20562;-83
2023/05/12 06:58:48;;;;;;;2.97;2.60;;;19.10;35.00;;;;;;5096368;28;20167;-83
2023/05/12 07:01:15;;;;;;;2.75;2.40;;;19.10;35.00;;;;;;5095768;28;20221;-82
2023/05/12 07:03:40;;;;;;;3.25;2.70;;;19.10;35.20;;;;;;5113282;28;20603;-82
2023/05/12 07:06:06;;;;;;;7.95;2.63;;;19.20;35.00;;;;;;5094947;28;20152;-83
2023/05/12 07:08:32;;;;;;;5.38;2.60;;;19.20;34.90;;;;;;5095449;28;20155;-82
2023/05/12 07:10:59;;;;;;;3.25;2.47;;;19.20;34.90;;;;;;5112558;28;20610;-83
2023/05/12 07:13:25;;;;;;;4.95;2.72;;;19.20;34.90;;;;;;5095211;28;20602;-82
2023/05/12 07:15:51;;;;;;;3.33;2.60;;;19.20;35.00;;;;;;5080139;28;20248;-82
2023/05/12 07:18:16;;;;;;;2.97;2.75;;;19.10;35.00;;;;;;5078760;28;20254;-82
2023/05/12 07:20:43;;;;;;;2.80;2.50;;;19.20;35.00;;;;;;5112880;28;20497;-83
2023/05/12 07:23:08;;;;;;;2.92;2.60;;;19.30;35.00;;;;;;5113169;28;20274;-82
2023/05/12 07:25:34;;;;;;;2.92;2.63;;;19.30;35.00;;;;;;5096240;28;20628;-83
2023/05/12 07:28:00;;;;;;;3.40;2.60;;;19.20;35.00;;;;;;5096483;28;20201;-83
2023/05/12 07:30:25;;;;;;;4.22;2.50;;;19.20;35.10;;;;;;5112996;28;20524;-82
2023/05/12 07:32:51;;;;;;;6.60;2.70;;;19.20;35.10;;;;;;5113525;28;20205;-83
2023/05/12 07:35:17;;;;;;;5.60;2.70;;;19.10;35.10;;;;;;5113589;28;20175;-83
2023/05/12 07:37:43;;;;;;;2.72;2.33;;;19.20;35.20;;;;;;5113536;28;20187;-83
2023/05/12 07:40:09;;;;;;;2.72;2.25;;;19.10;35.20;;;;;;5100568;28;20167;-82
2023/05/12 07:42:35;;;;;;;4.57;2.50;;;19.20;35.20;;;;;;5118640;28;20161;-83
2023/05/12 07:45:00;;;;;;;3.28;2.55;;;19.20;35.10;;;;;;5117674;28;20205;-83
2023/05/12 07:47:27;;;;;;;3.22;2.60;;;19.20;35.10;;;;;;5117514;28;20163;-83
2023/05/12 07:49:53;;;;;;;2.47;2.28;;;19.10;35.20;;;;;;5118438;28;20155;-83
2023/05/12 07:52:18;;;;;;;2.60;2.40;;;19.20;35.20;;;;;;5100386;28;20224;-83
2023/05/12 07:54:44;;;;;;;3.20;2.60;;;19.20;35.10;;;;;;5100310;28;20689;-84
2023/05/12 07:57:10;;;;;;;2.88;2.40;;;19.20;35.30;;;;;;5118502;28;20236;-82
2023/05/12 07:59:35;;;;;;;3.78;2.53;;;19.20;35.20;;;;;;5119100;28;20164;-83
2023/05/12 08:02:01;;;;;;;2.83;2.33;;;19.20;35.20;;;;;;5118171;28;20525;-83
2023/05/12 08:04:27;;;;;;;2.50;2.30;;;19.20;35.10;;;;;;5101531;28;20675;-83
2023/05/12 08:06:53;;;;;;;3.90;2.40;;;19.20;35.20;;;;;;5117441;28;20171;-83
2023/05/12 08:09:19;;;;;;;3.92;2.53;;;19.30;35.10;;;;;;5117192;28;20160;-83
2023/05/12 08:11:46;;;;;;;3.70;2.15;;;19.30;35.00;;;;;;5116615;28;20175;-83
2023/05/12 08:14:11;;;;;;;2.92;2.10;;;19.30;35.10;;;;;;5117347;28;20178;-83
2023/05/12 08:16:37;;;;;;;2.80;2.28;;;19.30;35.00;;;;;;5087391;27;20219;-83
2023/05/12 08:19:03;;;;;;;3.97;2.42;;;19.30;34.90;;;;;;5119634;27;20166;-83
2023/05/12 08:21:32;;;;;;;2.97;2.30;;;19.30;35.00;;;;;;5102696;27;20162;-83
2023/05/12 08:23:57;;;;;;;2.70;2.50;;;19.30;35.00;;;;;;5123207;27;20198;-83
2023/05/12 08:26:23;;;;;;;3.45;2.58;;;19.30;35.00;;;;;;5117562;28;20544;-83
2023/05/12 08:28:49;;;;;;;2.78;2.45;;;19.30;35.00;;;;;;5098941;28;20156;-83
2023/05/12 08:31:15;;;;;;;2.25;2.05;;;19.30;35.00;;;;;;5115471;28;20157;-83
2023/05/12 08:33:40;;;;;;;2.50;2.30;;;19.30;35.00;;;;;;5081772;28;20527;-82
2023/05/12 08:36:06;;;;;;;2.85;2.65;;;19.30;35.20;;;;;;5115664;28;20144;-83
2023/05/12 08:38:32;;;;;;;2.78;2.25;;;19.20;35.30;;;;;;5098671;28;20156;-82
2023/05/12 08:41:18;;;;;;;2.65;2.08;;;19.30;35.30;;;;;;5115431;28;20157;-83
2023/05/12 08:43:49;;;;;;;2.10;1.95;;;19.30;35.30;;;;;;5098442;28;20176;-83
2023/05/12 08:46:14;;;;;;;2.42;2.10;;;19.30;35.20;;;;;;5082905;28;20164;-82
2023/05/12 08:48:40;;;;;;;3.13;2.10;;;19.40;35.20;;;;;;5114596;28;20227;-83
2023/05/12 08:51:11;;;;;;;3.65;2.47;;;19.50;35.10;;;;;;5098147;28;20512;-83
2023/05/12 08:53:40;;;;;;;2.58;2.33;;;19.50;35.30;;;;;;5115045;28;20170;-83
2023/05/12 08:56:07;;;;;;;2.58;2.20;;;19.50;35.00;;;;;;5098412;28;20140;-82
2023/05/12 08:58:34;;;;;;;2.85;2.58;;;19.60;34.90;;;;;;5114833;28;20186;-83
2023/05/12 09:01:03;;;;;;;2.60;2.40;;;19.60;34.80;;;;;;5098057;28;20164;-83
2023/05/12 09:03:29;;;;;;;2.80;2.30;;;19.50;34.90;;;;;;5097942;28;20167;-83
2023/05/12 09:05:55;;;;;;;2.58;2.38;;;19.50;35.00;;;;;;5097921;28;20654;-84
2023/05/12 09:08:21;;;;;;;3.78;2.28;;;19.40;35.00;;;;;;5115693;28;20204;-83
2023/05/12 09:10:47;;;;;;;2.40;2.20;;;19.50;35.00;;;;;;5115426;28;20164;-83
2023/05/12 09:13:18;;;;;;;2.38;2.17;;;19.40;34.90;;;;;;5116195;28;20166;-84
2023/05/12 09:15:46;;;;;;;2.92;2.50;;;19.50;34.90;;;;;;5083069;28;20217;-83
2023/05/12 09:18:11;;;;;;;3.10;2.33;;;19.50;34.90;;;;;;5115577;28;20220;-84
2023/05/12 09:20:37;;;;;;;3.40;2.30;;;19.60;34.90;;;;;;5097730;28;20536;-82
2023/05/12 09:23:19;;;;;;;3.45;2.30;;;19.60;35.00;;;;;;5115463;28;20248;-83
2023/05/12 09:25:45;;;;;;;2.30;2.10;;;19.60;34.80;;;;;;5114371;28;20148;-84
2023/05/12 09:28:11;;;;;;;2.88;2.10;;;19.60;34.90;;;;;;5114451;28;20156;-83
2023/05/12 09:30:37;;;;;;;2.40;2.20;;;19.60;34.90;;;;;;5097567;28;20702;-83
2023/05/12 09:33:07;;;;;;;2.50;2.30;;;19.70;34.90;;;;;;5115505;28;20160;-83
2023/05/12 09:35:41;;;;;;;2.72;2.42;;;19.80;34.80;;;;;;5114265;28;20156;-83
2023/05/12 09:38:08;;;;;;;2.42;2.22;;;19.70;34.80;;;;;;5097557;28;20191;-82
2023/05/12 09:40:34;;;;;;;2.55;2.35;;;19.60;34.60;;;;;;5097225;28;20217;-83
2023/05/12 09:42:59;;;;;;;2.28;2.10;;;19.70;34.70;;;;;;5114259;28;20626;-82
2023/05/12 09:45:25;;;;;;;2.88;2.35;;;19.70;34.60;;;;;;5114085;28;20235;-82
2023/05/12 09:47:51;;;;;;;2.50;2.30;;;19.60;34.70;;;;;;5114053;28;20159;-84
2023/05/12 09:50:17;;;;;;;2.60;2.40;;;19.70;34.80;;;;;;5115377;28;20263;-82
2023/05/12 09:52:43;;;;;;;2.40;2.20;;;19.70;34.80;;;;;;5114949;28;20603;-82
2023/05/12 09:55:10;;;;;;;2.60;2.40;;;19.70;34.80;;;;;;5113998;28;20181;-82
2023/05/12 09:57:41;;;;;;;2.15;2.05;;;19.70;34.70;;;;;;5080132;28;20199;-84
2023/05/12 10:00:09;;;;;;;3.17;2.30;;;19.70;34.80;;;;;;5097052;28;20155;-83
2023/05/12 10:02:36;;;;;;;2.45;2.25;;;19.80;34.80;;;;;;5114371;28;20517;-83
2023/05/12 10:05:04;;;;;;;2.25;2.05;;;19.70;34.70;;;;;;5096877;28;20280;-85
2023/05/12 10:07:30;;;;;;;2.05;1.90;;;19.70;34.70;;;;;;5097300;28;20156;-83
2023/05/12 10:09:58;;;;;;;2.45;2.25;;;19.70;34.70;;;;;;5097682;28;20221;-84
2023/05/12 10:12:25;;;;;;;2.60;2.40;;;19.80;34.70;;;;;;5096899;28;20156;-84
2023/05/12 10:14:51;;;;;;;2.67;2.30;;;19.80;34.80;;;;;;5114454;28;20211;-84
2023/05/12 10:17:18;;;;;;;2.33;2.13;;;19.90;34.60;;;;;;5091061;27;20305;-85
2023/05/12 10:19:45;;;;;;;2.33;2.10;;;19.90;34.60;;;;;;5100883;27;20175;-84
2023/05/12 10:22:11;;;;;;;2.40;2.20;;;19.90;34.50;;;;;;5136478;27;20158;-84
2023/05/12 10:24:38;;;;;;;2.30;2.10;;;19.90;34.50;;;;;;5134871;27;20160;-83
2023/05/12 10:27:04;;;;;;;2.47;2.28;;;19.90;34.60;;;;;;5134747;27;20186;-83
2023/05/12 10:29:31;;;;;;;2.60;2.40;;;20.00;34.50;;;;;;5100992;27;20625;-84
2023/05/12 10:31:58;;;;;;;2.50;2.30;;;20.10;34.40;;;;;;5136504;27;20189;-84
2023/05/12 10:34:28;;;;;;;2.47;2.28;;;20.10;34.50;;;;;;5118121;27;20156;-85
2023/05/12 10:36:54;;;;;;;2.53;2.33;;;20.10;34.20;;;;;;5099308;27;20279;-83
2023/05/12 10:39:27;;;;;;;2.00;1.90;;;20.10;34.30;;;;;;5113639;28;20510;-84
2023/05/12 10:42:00;;;;;;;3.30;2.15;;;20.10;34.30;;;;;;5080234;28;20602;-84
2023/05/12 10:44:27;;;;;;;2.20;2.00;;;20.00;34.30;;;;;;5097929;28;20206;-84
2023/05/12 10:46:57;;;;;;;2.38;2.17;;;20.00;34.40;;;;;;5097503;28;20203;-84
2023/05/12 10:49:31;;;;;;;2.30;2.10;;;20.10;34.40;;;;;;5097223;28;20160;-84
2023/05/12 10:51:58;;;;;;;2.33;2.13;;;20.00;34.50;;;;;;5096703;28;20183;-82
2023/05/12 10:54:24;;;;;;;2.50;2.30;;;20.10;34.40;;;;;;5096318;28;20164;-83
2023/05/12 10:56:50;;;;;;;2.10;2.00;;;20.00;34.30;;;;;;5096245;28;20257;-83
2023/05/12 10:59:17;;;;;;;2.47;2.28;;;20.00;34.30;;;;;;5113089;28;20642;-83
2023/05/12 11:02:00;;;;;;;2.50;2.30;;;20.00;34.40;;;;;;5113995;28;20171;-84
2023/05/12 11:04:41;;;;;;;2.63;2.30;;;20.00;34.50;;;;;;5096666;28;20463;-82
2023/05/12 11:07:08;;;;;;;2.85;2.25;;;19.90;34.40;;;;;;5113390;28;20167;-82
2023/05/12 11:09:35;;;;;;;2.70;2.50;;;19.90;34.40;;;;;;5079675;28;20174;-83
2023/05/12 11:12:01;;;;;;;2.35;2.15;;;19.90;34.60;;;;;;5113514;28;20160;-83
2023/05/12 11:14:27;;;;;;;3.33;2.30;;;19.90;34.60;;;;;;5096026;28;20168;-84
2023/05/12 11:16:52;;;;;;;2.47;2.28;;;19.90;34.60;;;;;;5119547;28;20695;-84
2023/05/12 11:19:18;;;;;;;2.65;2.40;;;19.90;34.60;;;;;;5132381;28;20156;-83
2023/05/12 11:21:43;;;;;;;2.30;2.10;;;19.80;34.70;;;;;;5116390;28;20213;-83
2023/05/12 11:24:09;;;;;;;2.58;2.22;;;19.90;34.70;;;;;;5136056;28;20154;-83
2023/05/12 11:26:35;;;;;;;2.50;2.30;;;19.90;34.60;;;;;;5136345;28;20566;-83
2023/05/12 11:29:02;;;;;;;2.20;2.00;;;19.90;34.60;;;;;;5117677;28;20613;-82
2023/05/12 11:31:28;;;;;;;2.42;2.22;;;19.90;34.60;;;;;;5135437;28;20179;-83
2023/05/12 11:34:03;;;;;;;2.22;2.05;;;19.90;34.60;;;;;;5133930;28;20187;-83
2023/05/12 11:36:35;;;;;;;2.50;2.30;;;19.90;34.50;;;;;;5116632;28;20155;-83
2023/05/12 11:39:01;;;;;;;2.33;2.13;;;19.90;34.60;;;;;;5118194;28;20155;-83
2023/05/12 11:41:27;;;;;;;2.20;2.00;;;19.90;34.70;;;;;;5117241;28;20526;-83
2023/05/12 11:43:52;;;;;;;2.30;2.10;;;19.90;34.70;;;;;;5116729;28;20228;-84
2023/05/12 11:46:33;;;;;;;2.20;2.00;;;19.90;34.60;;;;;;5098962;28;20160;-83
2023/05/12 11:48:59;;;;;;;2.40;2.20;;;19.90;34.60;;;;;;5133163;28;20158;-83
2023/05/12 11:51:25;;;;;;;2.50;2.30;;;20.00;34.70;;;;;;5116030;28;20156;-83
2023/05/12 11:53:52;;;;;;;2.40;2.20;;;20.00;34.60;;;;;;5099577;28;20254;-85
2023/05/12 11:56:22;;;;;;;2.40;2.20;;;20.00;34.60;;;;;;5116530;28;20562;-85
2023/05/12 11:58:55;;;;;;;2.15;1.95;;;20.00;34.60;;;;;;5099413;28;20163;-82
2023/05/12 12:01:22;;;;;;;3.05;2.25;;;20.00;34.60;;;;;;5116399;28;20175;-84
2023/05/12 12:03:48;;;;;;;2.30;2.10;;;20.00;34.60;;;;;;5133971;28;20254;-83
2023/05/12 12:06:19;;;;;;;2.47;2.22;;;20.00;34.60;;;;;;5098733;28;20163;-84
2023/05/12 12:09:03;;;;;;;2.30;2.10;;;20.00;34.60;;;;;;5117526;28;20152;-83
2023/05/12 12:11:30;;;;;;;2.40;2.20;;;20.00;34.60;;;;;;5117729;28;20175;-83
2023/05/12 12:14:03;;;;;;;2.50;2.30;;;20.00;34.80;;;;;;5133734;27;20152;-84
2023/05/12 12:16:30;;;;;;;2.40;2.20;;;20.00;34.70;;;;;;5134213;27;20244;-83
2023/05/12 12:19:04;;;;;;;2.30;2.10;;;20.00;34.70;;;;;;5136894;27;20198;-84
2023/05/12 12:21:30;;;;;;;2.30;2.10;;;20.00;34.60;;;;;;5120524;27;20214;-84
2023/05/12 12:24:04;;;;;;;2.47;2.28;;;20.00;34.70;;;;;;5154793;27;20155;-86
2023/05/12 12:26:31;;;;;;;2.30;2.10;;;20.00;34.60;;;;;;5122758;27;20245;-84
2023/05/12 12:29:04;;;;;;;2.15;2.00;;;20.10;34.70;;;;;;5139718;27;20163;-83
2023/05/12 12:31:30;;;;;;;2.22;2.03;;;20.10;34.60;;;;;;5139797;27;20154;-84
2023/05/12 12:34:03;;;;;;;2.72;2.53;;;20.20;34.60;;;;;;5106849;27;20476;-85
2023/05/12 12:36:31;;;;;;;2.45;2.15;;;20.10;34.60;;;;;;5124542;27;20206;-83
2023/05/12 12:39:04;;;;;;;2.67;2.47;;;20.10;34.60;;;;;;5140390;27;20143;-84
2023/05/12 12:41:30;;;;;;;2.53;2.30;;;20.10;34.60;;;;;;5126480;27;20165;-83
2023/05/12 12:43:56;;;;;;;2.40;2.20;;;20.10;34.60;;;;;;5130055;27;20147;-82
2023/05/12 12:46:29;;;;;;;2.97;2.28;;;20.10;34.60;;;;;;5126878;27;20151;-84